sensor_id;sensor_type;location;lat;lon;timestamp;P1;durP1;ratioP1;P2;durP2;ratioP2
6519;SDS011;3293;51.690;5.982;2023-04-24T00:00:49;7.37;;;6.10;;
6519;SDS011;3293;51.690;5.982;2023-04-24T00:05:50;6.53;;;5.27;;
6519;SDS011;3293;51.690;5.982;2023-04-24T00:10:51;5.47;;;4.63;;
6519;SDS011;3293;51.690;5.982;2023-04-24T00:15:52;6.57;;;4.43;;
6519;SDS011;3293;51.690;5.982;2023-04-24T00:20:52;5.90;;;5.40;;
6519;SDS011;3293;51.690;5.982;2023-04-24T00:25:52;7.67;;;6.83;;
6519;SDS011;3293;51.690;5.982;2023-04-24T00:30:52;9.50;;;6.87;;
6519;SDS011;3293;51.690;5.982;2023-04-24T00:35:51;11.37;;;8.33;;
6519;SDS011;3293;51.690;5.982;2023-04-24T00:40:52;10.47;;;9.30;;
6519;SDS011;3293;51.690;5.982;2023-04-24T00:45:53;11.27;;;10.00;;
6519;SDS011;3293;51.690;5.982;2023-04-24T00:50:54;13.53;;;10.47;;
6519;SDS011;3293;51.690;5.982;2023-04-24T00:55:54;16.00;;;11.77;;
6519;SDS011;3293;51.690;5.982;2023-04-24T01:00:55;13.40;;;11.47;;
6519;SDS011;3293;51.690;5.982;2023-04-24T01:05:57;14.83;;;12.20;;
6519;SDS011;3293;51.690;5.982;2023-04-24T01:10:57;16.23;;;13.40;;
6519;SDS011;3293;51.690;5.982;2023-04-24T01:15:57;19.57;;;14.40;;
6519;SDS011;3293;51.690;5.982;2023-04-24T01:20:58;19.63;;;14.93;;
6519;SDS011;3293;51.690;5.982;2023-04-24T01:25:58;19.43;;;14.90;;
6519;SDS011;3293;51.690;5.982;2023-04-24T01:30:59;19.80;;;16.50;;
6519;SDS011;3293;51.690;5.982;2023-04-24T01:35:59;23.97;;;16.13;;
6519;SDS011;3293;51.690;5.982;2023-04-24T01:40:59;20.20;;;17.13;;
6519;SDS011;3293;51.690;5.982;2023-04-24T01:45:59;19.80;;;17.37;;
6519;SDS011;3293;51.690;5.982;2023-04-24T01:50:59;25.50;;;17.97;;
6519;SDS011;3293;51.690;5.982;2023-04-24T01:55:59;30.60;;;18.97;;
6519;SDS011;3293;51.690;5.982;2023-04-24T02:01:00;24.03;;;17.80;;
6519;SDS011;3293;51.690;5.982;2023-04-24T02:06:00;25.40;;;18.17;;
6519;SDS011;3293;51.690;5.982;2023-04-24T02:11:00;28.47;;;19.73;;
6519;SDS011;3293;51.690;5.982;2023-04-24T02:16:01;29.27;;;20.73;;
6519;SDS011;3293;51.690;5.982;2023-04-24T02:21:01;30.67;;;21.50;;
6519;SDS011;3293;51.690;5.982;2023-04-24T02:26:01;33.13;;;22.80;;
6519;SDS011;3293;51.690;5.982;2023-04-24T02:31:01;35.67;;;24.53;;
6519;SDS011;3293;51.690;5.982;2023-04-24T02:36:02;37.27;;;25.10;;
6519;SDS011;3293;51.690;5.982;2023-04-24T02:41:02;33.97;;;23.07;;
6519;SDS011;3293;51.690;5.982;2023-04-24T02:46:05;35.27;;;25.50;;
6519;SDS011;3293;51.690;5.982;2023-04-24T02:51:05;37.43;;;25.63;;
6519;SDS011;3293;51.690;5.982;2023-04-24T02:56:06;34.27;;;25.40;;
6519;SDS011;3293;51.690;5.982;2023-04-24T03:01:06;37.83;;;25.30;;
6519;SDS011;3293;51.690;5.982;2023-04-24T03:06:06;38.47;;;25.63;;
6519;SDS011;3293;51.690;5.982;2023-04-24T03:11:07;36.83;;;24.47;;
6519;SDS011;3293;51.690;5.982;2023-04-24T03:16:07;33.40;;;24.70;;
6519;SDS011;3293;51.690;5.982;2023-04-24T03:21:07;35.13;;;25.17;;
6519;SDS011;3293;51.690;5.982;2023-04-24T03:26:07;34.47;;;25.67;;
6519;SDS011;3293;51.690;5.982;2023-04-24T03:31:06;38.57;;;25.00;;
6519;SDS011;3293;51.690;5.982;2023-04-24T03:36:06;33.97;;;24.07;;
6519;SDS011;3293;51.690;5.982;2023-04-24T03:41:06;39.73;;;25.90;;
6519;SDS011;3293;51.690;5.982;2023-04-24T03:46:06;32.67;;;23.97;;
6519;SDS011;3293;51.690;5.982;2023-04-24T03:51:08;36.83;;;24.00;;
6519;SDS011;3293;51.690;5.982;2023-04-24T03:56:08;30.47;;;23.43;;
6519;SDS011;3293;51.690;5.982;2023-04-24T04:01:08;31.23;;;23.90;;
6519;SDS011;3293;51.690;5.982;2023-04-24T04:06:08;31.53;;;22.87;;
6519;SDS011;3293;51.690;5.982;2023-04-24T04:11:10;31.63;;;22.87;;
6519;SDS011;3293;51.690;5.982;2023-04-24T04:16:10;30.00;;;22.57;;
6519;SDS011;3293;51.690;5.982;2023-04-24T04:21:10;27.23;;;20.53;;
6519;SDS011;3293;51.690;5.982;2023-04-24T04:26:11;30.33;;;20.03;;
6519;SDS011;3293;51.690;5.982;2023-04-24T04:31:11;31.43;;;20.70;;
6519;SDS011;3293;51.690;5.982;2023-04-24T04:36:13;25.63;;;20.43;;
6519;SDS011;3293;51.690;5.982;2023-04-24T04:41:13;28.10;;;20.10;;
6519;SDS011;3293;51.690;5.982;2023-04-24T04:46:13;28.80;;;19.93;;
6519;SDS011;3293;51.690;5.982;2023-04-24T04:51:13;21.17;;;18.73;;
6519;SDS011;3293;51.690;5.982;2023-04-24T04:56:13;25.97;;;19.40;;
6519;SDS011;3293;51.690;5.982;2023-04-24T05:01:13;25.53;;;18.03;;
6519;SDS011;3293;51.690;5.982;2023-04-24T05:06:13;25.47;;;18.13;;
6519;SDS011;3293;51.690;5.982;2023-04-24T05:11:13;23.20;;;17.30;;
6519;SDS011;3293;51.690;5.982;2023-04-24T05:16:14;24.27;;;16.70;;
6519;SDS011;3293;51.690;5.982;2023-04-24T05:21:14;18.53;;;14.93;;
6519;SDS011;3293;51.690;5.982;2023-04-24T05:26:15;21.60;;;16.37;;
6519;SDS011;3293;51.690;5.982;2023-04-24T05:31:15;21.73;;;16.00;;
6519;SDS011;3293;51.690;5.982;2023-04-24T05:36:17;18.37;;;14.23;;
6519;SDS011;3293;51.690;5.982;2023-04-24T05:41:16;15.53;;;13.37;;
6519;SDS011;3293;51.690;5.982;2023-04-24T05:46:16;18.43;;;14.23;;
6519;SDS011;3293;51.690;5.982;2023-04-24T05:51:16;18.10;;;14.57;;
6519;SDS011;3293;51.690;5.982;2023-04-24T05:56:16;20.07;;;16.03;;
6519;SDS011;3293;51.690;5.982;2023-04-24T06:01:16;17.20;;;13.07;;
6519;SDS011;3293;51.690;5.982;2023-04-24T06:06:17;15.97;;;12.50;;
6519;SDS011;3293;51.690;5.982;2023-04-24T06:11:18;15.40;;;13.53;;
6519;SDS011;3293;51.690;5.982;2023-04-24T06:16:18;13.67;;;12.03;;
6519;SDS011;3293;51.690;5.982;2023-04-24T06:21:18;15.43;;;11.70;;
6519;SDS011;3293;51.690;5.982;2023-04-24T06:26:18;11.73;;;10.53;;
6519;SDS011;3293;51.690;5.982;2023-04-24T06:31:18;12.30;;;9.27;;
6519;SDS011;3293;51.690;5.982;2023-04-24T06:36:18;11.97;;;9.67;;
6519;SDS011;3293;51.690;5.982;2023-04-24T06:41:18;12.07;;;9.20;;
6519;SDS011;3293;51.690;5.982;2023-04-24T06:46:18;11.60;;;8.73;;
6519;SDS011;3293;51.690;5.982;2023-04-24T06:51:18;9.00;;;7.40;;
6519;SDS011;3293;51.690;5.982;2023-04-24T06:56:18;8.50;;;6.90;;
6519;SDS011;3293;51.690;5.982;2023-04-24T07:01:18;5.20;;;4.60;;
6519;SDS011;3293;51.690;5.982;2023-04-24T07:06:18;5.57;;;4.50;;
6519;SDS011;3293;51.690;5.982;2023-04-24T07:11:22;3.00;;;2.70;;
6519;SDS011;3293;51.690;5.982;2023-04-24T07:16:22;2.93;;;2.73;;
6519;SDS011;3293;51.690;5.982;2023-04-24T07:21:22;2.90;;;2.33;;
6519;SDS011;3293;51.690;5.982;2023-04-24T07:26:22;2.00;;;1.90;;
6519;SDS011;3293;51.690;5.982;2023-04-24T07:31:22;2.30;;;2.10;;
6519;SDS011;3293;51.690;5.982;2023-04-24T07:36:22;3.37;;;2.00;;
6519;SDS011;3293;51.690;5.982;2023-04-24T07:41:23;2.77;;;2.10;;
6519;SDS011;3293;51.690;5.982;2023-04-24T07:46:23;3.90;;;2.10;;
6519;SDS011;3293;51.690;5.982;2023-04-24T07:51:24;2.83;;;2.50;;
6519;SDS011;3293;51.690;5.982;2023-04-24T07:56:26;3.60;;;3.30;;
6519;SDS011;3293;51.690;5.982;2023-04-24T08:01:26;7.83;;;7.03;;
6519;SDS011;3293;51.690;5.982;2023-04-24T08:06:26;13.30;;;11.00;;
6519;SDS011;3293;51.690;5.982;2023-04-24T08:11:29;18.07;;;13.23;;
6519;SDS011;3293;51.690;5.982;2023-04-24T08:16:29;17.17;;;11.87;;
6519;SDS011;3293;51.690;5.982;2023-04-24T08:21:29;20.90;;;12.10;;
6519;SDS011;3293;51.690;5.982;2023-04-24T08:26:29;20.73;;;13.03;;
6519;SDS011;3293;51.690;5.982;2023-04-24T08:31:29;17.50;;;12.80;;
6519;SDS011;3293;51.690;5.982;2023-04-24T08:36:30;21.83;;;12.33;;
6519;SDS011;3293;51.690;5.982;2023-04-24T08:41:31;15.03;;;10.60;;
6519;SDS011;3293;51.690;5.982;2023-04-24T08:46:33;20.33;;;11.90;;
6519;SDS011;3293;51.690;5.982;2023-04-24T08:51:33;18.50;;;11.87;;
6519;SDS011;3293;51.690;5.982;2023-04-24T08:56:36;20.43;;;11.30;;
6519;SDS011;3293;51.690;5.982;2023-04-24T09:01:38;24.43;;;10.70;;
6519;SDS011;3293;51.690;5.982;2023-04-24T09:06:39;21.03;;;10.40;;
6519;SDS011;3293;51.690;5.982;2023-04-24T09:11:40;16.20;;;9.83;;
6519;SDS011;3293;51.690;5.982;2023-04-24T09:16:40;14.83;;;8.30;;
6519;SDS011;3293;51.690;5.982;2023-04-24T09:21:41;18.33;;;7.37;;
6519;SDS011;3293;51.690;5.982;2023-04-24T09:26:45;21.37;;;7.97;;
6519;SDS011;3293;51.690;5.982;2023-04-24T09:31:45;19.43;;;6.73;;
6519;SDS011;3293;51.690;5.982;2023-04-24T09:36:46;22.97;;;6.80;;
6519;SDS011;3293;51.690;5.982;2023-04-24T09:41:53;19.33;;;6.90;;
6519;SDS011;3293;51.690;5.982;2023-04-24T09:46:57;14.37;;;6.07;;
6519;SDS011;3293;51.690;5.982;2023-04-24T09:52:05;13.60;;;5.07;;
6519;SDS011;3293;51.690;5.982;2023-04-24T09:57:07;12.43;;;5.23;;
6519;SDS011;3293;51.690;5.982;2023-04-24T10:02:18;13.03;;;4.47;;
6519;SDS011;3293;51.690;5.982;2023-04-24T10:07:19;13.03;;;5.00;;
6519;SDS011;3293;51.690;5.982;2023-04-24T10:12:19;11.53;;;4.20;;
6519;SDS011;3293;51.690;5.982;2023-04-24T10:17:21;9.57;;;3.90;;
6519;SDS011;3293;51.690;5.982;2023-04-24T10:22:22;12.07;;;3.97;;
6519;SDS011;3293;51.690;5.982;2023-04-24T10:27:23;7.23;;;3.90;;
6519;SDS011;3293;51.690;5.982;2023-04-24T10:32:26;12.67;;;4.10;;
6519;SDS011;3293;51.690;5.982;2023-04-24T10:37:26;8.13;;;3.80;;
6519;SDS011;3293;51.690;5.982;2023-04-24T10:42:27;12.07;;;3.97;;
6519;SDS011;3293;51.690;5.982;2023-04-24T10:47:27;9.87;;;4.73;;
6519;SDS011;3293;51.690;5.982;2023-04-24T10:52:43;7.77;;;3.20;;
6519;SDS011;3293;51.690;5.982;2023-04-24T10:58:01;8.23;;;3.50;;
6519;SDS011;3293;51.690;5.982;2023-04-24T11:03:04;8.27;;;3.30;;
6519;SDS011;3293;51.690;5.982;2023-04-24T11:08:15;8.67;;;2.83;;
6519;SDS011;3293;51.690;5.982;2023-04-24T11:13:21;7.33;;;3.60;;
6519;SDS011;3293;51.690;5.982;2023-04-24T11:18:21;4.93;;;2.73;;
6519;SDS011;3293;51.690;5.982;2023-04-24T11:23:22;7.20;;;2.93;;
6519;SDS011;3293;51.690;5.982;2023-04-24T11:28:22;3.27;;;2.30;;
6519;SDS011;3293;51.690;5.982;2023-04-24T11:33:23;3.83;;;2.40;;
6519;SDS011;3293;51.690;5.982;2023-04-24T11:38:24;6.20;;;2.73;;
6519;SDS011;3293;51.690;5.982;2023-04-24T11:43:25;3.57;;;2.17;;
6519;SDS011;3293;51.690;5.982;2023-04-24T11:48:25;6.07;;;2.77;;
6519;SDS011;3293;51.690;5.982;2023-04-24T11:53:25;2.40;;;2.10;;
6519;SDS011;3293;51.690;5.982;2023-04-24T11:58:25;6.17;;;2.67;;
6519;SDS011;3293;51.690;5.982;2023-04-24T12:03:26;5.77;;;2.50;;
6519;SDS011;3293;51.690;5.982;2023-04-24T12:08:28;3.93;;;2.27;;
6519;SDS011;3293;51.690;5.982;2023-04-24T12:13:28;4.10;;;2.50;;
6519;SDS011;3293;51.690;5.982;2023-04-24T12:18:28;4.20;;;2.50;;
6519;SDS011;3293;51.690;5.982;2023-04-24T12:23:35;2.07;;;1.97;;
6519;SDS011;3293;51.690;5.982;2023-04-24T12:28:35;6.40;;;2.73;;
6519;SDS011;3293;51.690;5.982;2023-04-24T12:33:37;6.20;;;2.40;;
6519;SDS011;3293;51.690;5.982;2023-04-24T12:38:38;7.87;;;2.37;;
6519;SDS011;3293;51.690;5.982;2023-04-24T12:43:50;3.63;;;2.30;;
6519;SDS011;3293;51.690;5.982;2023-04-24T12:48:52;4.17;;;2.43;;
6519;SDS011;3293;51.690;5.982;2023-04-24T12:53:52;6.00;;;2.73;;
6519;SDS011;3293;51.690;5.982;2023-04-24T12:58:52;5.57;;;2.40;;
6519;SDS011;3293;51.690;5.982;2023-04-24T13:03:52;6.23;;;2.33;;
6519;SDS011;3293;51.690;5.982;2023-04-24T13:08:52;6.10;;;2.50;;
6519;SDS011;3293;51.690;5.982;2023-04-24T13:13:54;11.40;;;3.23;;
6519;SDS011;3293;51.690;5.982;2023-04-24T13:18:54;6.87;;;3.37;;
6519;SDS011;3293;51.690;5.982;2023-04-24T13:23:54;8.70;;;3.53;;
6519;SDS011;3293;51.690;5.982;2023-04-24T13:28:54;5.13;;;3.00;;
6519;SDS011;3293;51.690;5.982;2023-04-24T13:33:53;5.77;;;2.70;;
6519;SDS011;3293;51.690;5.982;2023-04-24T13:38:53;7.60;;;2.60;;
6519;SDS011;3293;51.690;5.982;2023-04-24T13:43:53;6.47;;;2.70;;
6519;SDS011;3293;51.690;5.982;2023-04-24T13:48:54;4.10;;;2.07;;
6519;SDS011;3293;51.690;5.982;2023-04-24T13:53:54;3.77;;;2.30;;
6519;SDS011;3293;51.690;5.982;2023-04-24T13:58:54;2.67;;;2.20;;
6519;SDS011;3293;51.690;5.982;2023-04-24T14:03:55;2.40;;;2.20;;
6519;SDS011;3293;51.690;5.982;2023-04-24T14:08:55;4.13;;;2.40;;
6519;SDS011;3293;51.690;5.982;2023-04-24T14:13:55;7.80;;;3.07;;
6519;SDS011;3293;51.690;5.982;2023-04-24T14:18:58;6.37;;;3.00;;
6519;SDS011;3293;51.690;5.982;2023-04-24T14:23:58;6.53;;;3.47;;
6519;SDS011;3293;51.690;5.982;2023-04-24T14:28:58;8.20;;;4.03;;
6519;SDS011;3293;51.690;5.982;2023-04-24T14:33:58;3.37;;;2.53;;
6519;SDS011;3293;51.690;5.982;2023-04-24T14:38:58;3.03;;;2.23;;
6519;SDS011;3293;51.690;5.982;2023-04-24T14:43:58;4.90;;;3.00;;
6519;SDS011;3293;51.690;5.982;2023-04-24T14:48:58;6.50;;;2.90;;
6519;SDS011;3293;51.690;5.982;2023-04-24T14:53:58;5.33;;;3.00;;
6519;SDS011;3293;51.690;5.982;2023-04-24T14:58:58;9.40;;;3.83;;
6519;SDS011;3293;51.690;5.982;2023-04-24T15:03:58;4.37;;;3.10;;
6519;SDS011;3293;51.690;5.982;2023-04-24T15:08:58;6.13;;;3.40;;
6519;SDS011;3293;51.690;5.982;2023-04-24T15:13:58;5.93;;;3.43;;
6519;SDS011;3293;51.690;5.982;2023-04-24T15:18:58;5.77;;;3.30;;
6519;SDS011;3293;51.690;5.982;2023-04-24T15:23:58;10.03;;;3.93;;
6519;SDS011;3293;51.690;5.982;2023-04-24T15:28:58;7.40;;;4.40;;
6519;SDS011;3293;51.690;5.982;2023-04-24T15:33:58;6.33;;;4.00;;
6519;SDS011;3293;51.690;5.982;2023-04-24T15:38:58;8.27;;;3.10;;
6519;SDS011;3293;51.690;5.982;2023-04-24T15:43:58;5.77;;;3.27;;
6519;SDS011;3293;51.690;5.982;2023-04-24T15:48:57;9.00;;;3.60;;
6519;SDS011;3293;51.690;5.982;2023-04-24T15:53:58;8.90;;;4.00;;
6519;SDS011;3293;51.690;5.982;2023-04-24T15:58:58;6.00;;;3.80;;
6519;SDS011;3293;51.690;5.982;2023-04-24T16:03:59;9.77;;;4.13;;
6519;SDS011;3293;51.690;5.982;2023-04-24T16:08:59;7.87;;;4.40;;
6519;SDS011;3293;51.690;5.982;2023-04-24T16:13:59;11.73;;;4.73;;
6519;SDS011;3293;51.690;5.982;2023-04-24T16:18:59;11.13;;;5.20;;
6519;SDS011;3293;51.690;5.982;2023-04-24T16:23:59;13.20;;;5.53;;
6519;SDS011;3293;51.690;5.982;2023-04-24T16:28:59;14.17;;;6.40;;
6519;SDS011;3293;51.690;5.982;2023-04-24T16:33:59;11.40;;;4.87;;
6519;SDS011;3293;51.690;5.982;2023-04-24T16:38:59;9.43;;;5.07;;
6519;SDS011;3293;51.690;5.982;2023-04-24T16:44:03;12.60;;;4.87;;
6519;SDS011;3293;51.690;5.982;2023-04-24T16:49:03;10.80;;;4.87;;
6519;SDS011;3293;51.690;5.982;2023-04-24T16:54:03;20.10;;;5.27;;
6519;SDS011;3293;51.690;5.982;2023-04-24T16:59:03;11.63;;;4.90;;
6519;SDS011;3293;51.690;5.982;2023-04-24T17:04:03;13.67;;;4.67;;
6519;SDS011;3293;51.690;5.982;2023-04-24T17:09:03;9.57;;;4.60;;
6519;SDS011;3293;51.690;5.982;2023-04-24T17:14:03;10.83;;;5.00;;
6519;SDS011;3293;51.690;5.982;2023-04-24T17:19:04;11.23;;;4.97;;
6519;SDS011;3293;51.690;5.982;2023-04-24T17:24:05;12.30;;;5.57;;
6519;SDS011;3293;51.690;5.982;2023-04-24T17:29:05;14.50;;;5.40;;
6519;SDS011;3293;51.690;5.982;2023-04-24T17:34:05;8.13;;;5.03;;
6519;SDS011;3293;51.690;5.982;2023-04-24T17:39:07;14.80;;;5.27;;
6519;SDS011;3293;51.690;5.982;2023-04-24T17:44:08;14.50;;;4.73;;
6519;SDS011;3293;51.690;5.982;2023-04-24T17:49:08;8.60;;;4.60;;
6519;SDS011;3293;51.690;5.982;2023-04-24T17:54:08;14.80;;;5.50;;
6519;SDS011;3293;51.690;5.982;2023-04-24T17:59:09;13.97;;;4.67;;
6519;SDS011;3293;51.690;5.982;2023-04-24T18:04:08;12.53;;;4.90;;
6519;SDS011;3293;51.690;5.982;2023-04-24T18:09:09;10.73;;;5.83;;
6519;SDS011;3293;51.690;5.982;2023-04-24T18:14:10;11.97;;;5.03;;
6519;SDS011;3293;51.690;5.982;2023-04-24T18:19:10;15.43;;;5.70;;
6519;SDS011;3293;51.690;5.982;2023-04-24T18:24:10;18.00;;;5.57;;
6519;SDS011;3293;51.690;5.982;2023-04-24T18:29:10;14.50;;;5.77;;
6519;SDS011;3293;51.690;5.982;2023-04-24T18:34:09;13.13;;;5.40;;
6519;SDS011;3293;51.690;5.982;2023-04-24T18:39:09;14.77;;;5.50;;
6519;SDS011;3293;51.690;5.982;2023-04-24T18:44:09;18.00;;;5.63;;
6519;SDS011;3293;51.690;5.982;2023-04-24T18:49:10;16.70;;;6.27;;
6519;SDS011;3293;51.690;5.982;2023-04-24T18:54:10;19.10;;;6.30;;
6519;SDS011;3293;51.690;5.982;2023-04-24T18:59:10;13.13;;;5.87;;
6519;SDS011;3293;51.690;5.982;2023-04-24T19:04:10;13.67;;;5.80;;
6519;SDS011;3293;51.690;5.982;2023-04-24T19:09:10;12.80;;;6.27;;
6519;SDS011;3293;51.690;5.982;2023-04-24T19:14:10;10.43;;;5.97;;
6519;SDS011;3293;51.690;5.982;2023-04-24T19:19:11;11.97;;;6.27;;
6519;SDS011;3293;51.690;5.982;2023-04-24T19:24:11;15.90;;;6.10;;
6519;SDS011;3293;51.690;5.982;2023-04-24T19:29:11;13.80;;;5.77;;
6519;SDS011;3293;51.690;5.982;2023-04-24T19:34:11;16.93;;;6.87;;
6519;SDS011;3293;51.690;5.982;2023-04-24T19:39:11;17.17;;;7.03;;
6519;SDS011;3293;51.690;5.982;2023-04-24T19:44:11;15.57;;;5.90;;
6519;SDS011;3293;51.690;5.982;2023-04-24T19:49:12;15.63;;;6.70;;
6519;SDS011;3293;51.690;5.982;2023-04-24T19:54:14;18.27;;;6.97;;
6519;SDS011;3293;51.690;5.982;2023-04-24T19:59:14;19.90;;;6.57;;
6519;SDS011;3293;51.690;5.982;2023-04-24T20:04:14;16.33;;;7.13;;
6519;SDS011;3293;51.690;5.982;2023-04-24T20:09:14;15.17;;;7.30;;
6519;SDS011;3293;51.690;5.982;2023-04-24T20:14:14;20.57;;;7.03;;
6519;SDS011;3293;51.690;5.982;2023-04-24T20:19:14;16.60;;;6.73;;
6519;SDS011;3293;51.690;5.982;2023-04-24T20:24:14;16.47;;;7.57;;
6519;SDS011;3293;51.690;5.982;2023-04-24T20:29:14;16.10;;;6.77;;
6519;SDS011;3293;51.690;5.982;2023-04-24T20:34:14;16.67;;;6.97;;
6519;SDS011;3293;51.690;5.982;2023-04-24T20:39:15;13.93;;;6.67;;
6519;SDS011;3293;51.690;5.982;2023-04-24T20:44:15;15.00;;;7.40;;
6519;SDS011;3293;51.690;5.982;2023-04-24T20:49:15;17.17;;;7.00;;
6519;SDS011;3293;51.690;5.982;2023-04-24T20:54:15;18.33;;;7.73;;
6519;SDS011;3293;51.690;5.982;2023-04-24T20:59:15;12.63;;;7.47;;
6519;SDS011;3293;51.690;5.982;2023-04-24T21:04:15;20.93;;;7.40;;
6519;SDS011;3293;51.690;5.982;2023-04-24T21:09:15;23.67;;;7.87;;
6519;SDS011;3293;51.690;5.982;2023-04-24T21:14:15;18.90;;;7.80;;
6519;SDS011;3293;51.690;5.982;2023-04-24T21:19:15;15.23;;;7.13;;
6519;SDS011;3293;51.690;5.982;2023-04-24T21:24:15;15.43;;;7.10;;
6519;SDS011;3293;51.690;5.982;2023-04-24T21:29:15;17.63;;;6.97;;
6519;SDS011;3293;51.690;5.982;2023-04-24T21:34:15;17.10;;;8.17;;
6519;SDS011;3293;51.690;5.982;2023-04-24T21:39:16;18.47;;;8.13;;
6519;SDS011;3293;51.690;5.982;2023-04-24T21:44:16;15.33;;;7.00;;
6519;SDS011;3293;51.690;5.982;2023-04-24T21:49:17;17.37;;;7.93;;
6519;SDS011;3293;51.690;5.982;2023-04-24T21:54:17;15.67;;;7.30;;
6519;SDS011;3293;51.690;5.982;2023-04-24T21:59:18;14.37;;;7.53;;
6519;SDS011;3293;51.690;5.982;2023-04-24T22:04:19;18.10;;;6.90;;
6519;SDS011;3293;51.690;5.982;2023-04-24T22:09:19;14.73;;;7.93;;
6519;SDS011;3293;51.690;5.982;2023-04-24T22:14:19;15.17;;;7.50;;
6519;SDS011;3293;51.690;5.982;2023-04-24T22:19:19;12.90;;;6.80;;
6519;SDS011;3293;51.690;5.982;2023-04-24T22:24:19;10.90;;;7.07;;
6519;SDS011;3293;51.690;5.982;2023-04-24T22:29:19;16.00;;;7.30;;
6519;SDS011;3293;51.690;5.982;2023-04-24T22:34:19;13.57;;;6.70;;
6519;SDS011;3293;51.690;5.982;2023-04-24T22:39:19;19.23;;;6.67;;
6519;SDS011;3293;51.690;5.982;2023-04-24T22:44:20;15.63;;;7.30;;
6519;SDS011;3293;51.690;5.982;2023-04-24T22:49:20;17.13;;;8.80;;
6519;SDS011;3293;51.690;5.982;2023-04-24T22:54:20;14.47;;;7.43;;
6519;SDS011;3293;51.690;5.982;2023-04-24T22:59:20;13.97;;;6.90;;
6519;SDS011;3293;51.690;5.982;2023-04-24T23:09:52;11.83;;;7.23;;
6519;SDS011;3293;51.690;5.982;2023-04-24T23:14:52;17.07;;;7.90;;
6519;SDS011;3293;51.690;5.982;2023-04-24T23:19:52;16.07;;;7.67;;
6519;SDS011;3293;51.690;5.982;2023-04-24T23:24:52;15.90;;;7.43;;
6519;SDS011;3293;51.690;5.982;2023-04-24T23:29:52;15.10;;;7.50;;
6519;SDS011;3293;51.690;5.982;2023-04-24T23:34:52;17.23;;;8.23;;
6519;SDS011;3293;51.690;5.982;2023-04-24T23:39:52;26.23;;;9.23;;
6519;SDS011;3293;51.690;5.982;2023-04-24T23:44:52;18.93;;;8.27;;
6519;SDS011;3293;51.690;5.982;2023-04-24T23:49:52;18.10;;;8.87;;
6519;SDS011;3293;51.690;5.982;2023-04-24T23:54:53;22.67;;;9.17;;
6519;SDS011;3293;51.690;5.982;2023-04-24T23:59:53;16.60;;;8.17;;
